createdAt,value
2023-05-09T00:00:23.324Z,28.10
2023-05-09T00:02:52.551Z,28.10
2023-05-09T00:05:35.292Z,28.10
2023-05-09T00:08:04.441Z,28.20
2023-05-09T00:10:33.544Z,28.20
2023-05-09T00:13:02.625Z,28.20
2023-05-09T00:15:34.470Z,28.30
2023-05-09T00:18:25.260Z,28.30
2023-05-09T00:20:56.613Z,28.30
2023-05-09T00:23:25.984Z,28.30
2023-05-09T00:25:55.003Z,28.40
2023-05-09T00:28:24.073Z,28.40
2023-05-09T00:30:55.956Z,28.40
2023-05-09T00:33:28.107Z,28.50
2023-05-09T00:35:57.260Z,28.50
2023-05-09T00:38:26.488Z,28.60
2023-05-09T00:40:55.485Z,28.60
2023-05-09T00:43:24.417Z,28.60
2023-05-09T00:45:58.916Z,28.70
2023-05-09T00:48:28.616Z,28.70
2023-05-09T00:51:00.719Z,28.70
2023-05-09T00:53:30.039Z,28.80
2023-05-09T00:55:59.836Z,28.80
2023-05-09T00:58:29.748Z,28.90
2023-05-09T01:01:00.855Z,28.90
2023-05-09T01:03:31.549Z,29.00
2023-05-09T01:06:11.371Z,29.10
2023-05-09T01:08:59.038Z,29.20
2023-05-09T01:11:48.104Z,29.30
2023-05-09T01:14:26.898Z,29.50
2023-05-09T01:17:36.875Z,29.70
2023-05-09T01:20:23.767Z,29.90
2023-05-09T01:23:13.224Z,30.10
2023-05-09T01:26:00.473Z,30.30
2023-05-09T01:29:02.619Z,30.40
2023-05-09T01:31:33.421Z,30.60
2023-05-09T01:34:06.496Z,30.80
2023-05-09T01:36:38.105Z,30.90
2023-05-09T01:39:08.890Z,31.00
2023-05-09T01:41:42.873Z,31.10
2023-05-09T01:44:15.354Z,31.20
2023-05-09T01:46:45.608Z,31.30
2023-05-09T01:49:17.112Z,31.40
2023-05-09T01:51:48.400Z,31.50
2023-05-09T01:54:18.628Z,31.60
2023-05-09T01:56:48.870Z,31.80
2023-05-09T01:59:19.459Z,31.90
2023-05-09T02:01:49.865Z,32.00
2023-05-09T02:04:20.808Z,32.10
2023-05-09T02:06:53.005Z,32.10
2023-05-09T02:09:23.187Z,32.10
2023-05-09T02:11:52.284Z,32.20
2023-05-09T02:14:21.669Z,32.20
2023-05-09T02:16:50.945Z,32.20
2023-05-09T02:19:20.313Z,32.20
2023-05-09T02:21:49.627Z,32.20
2023-05-09T02:24:18.966Z,32.20
2023-05-09T02:26:48.408Z,32.30
2023-05-09T02:29:21.685Z,32.40
2023-05-09T02:31:53.312Z,32.50
2023-05-09T02:34:23.637Z,32.60
2023-05-09T02:36:52.734Z,32.60
2023-05-09T02:39:31.326Z,32.70
2023-05-09T02:42:12.892Z,32.80
2023-05-09T02:44:42.285Z,32.90
2023-05-09T02:47:11.814Z,33.10
2023-05-09T02:49:41.089Z,33.10
2023-05-09T02:52:10.545Z,33.20
2023-05-09T02:54:40.145Z,33.30
2023-05-09T02:57:09.260Z,33.40
2023-05-09T02:59:38.252Z,33.50
2023-05-09T03:02:07.620Z,33.70
2023-05-09T03:04:37.151Z,33.90
2023-05-09T03:07:06.697Z,34.10
2023-05-09T03:09:35.914Z,34.20
2023-05-09T03:12:05.119Z,34.40
2023-05-09T03:14:34.192Z,34.50
2023-05-09T03:17:03.444Z,34.60
2023-05-09T03:19:32.584Z,34.80
2023-05-09T03:22:01.687Z,34.90
2023-05-09T03:24:31.262Z,34.90
2023-05-09T03:27:00.519Z,35.00
2023-05-09T03:29:29.741Z,35.10
2023-05-09T03:31:58.695Z,35.20
2023-05-09T03:34:27.840Z,35.30
2023-05-09T03:36:56.733Z,35.40
2023-05-09T03:39:25.760Z,35.40
2023-05-09T03:41:54.762Z,35.50
2023-05-09T03:44:23.804Z,35.60
2023-05-09T03:46:52.910Z,35.70
2023-05-09T03:49:21.945Z,35.80
2023-05-09T03:51:51.123Z,35.90
2023-05-09T03:54:20.128Z,36.00
2023-05-09T03:56:49.169Z,36.10
2023-05-09T03:59:18.505Z,36.20
2023-05-09T04:01:47.650Z,36.30
2023-05-09T04:04:17.330Z,36.50
2023-05-09T04:06:46.386Z,36.60
2023-05-09T04:09:16.076Z,36.70
2023-05-09T04:11:45.464Z,36.70
2023-05-09T04:14:14.453Z,36.80
2023-05-09T04:16:44.802Z,36.90
2023-05-09T04:19:13.924Z,36.90
2023-05-09T04:21:46.668Z,36.80
2023-05-09T04:24:15.833Z,36.90
2023-05-09T04:26:45.082Z,37.10
2023-05-09T04:29:14.039Z,37.20
2023-05-09T04:31:43.242Z,37.30
2023-05-09T04:34:13.032Z,37.40
2023-05-09T04:36:42.299Z,37.50
2023-05-09T04:39:12.030Z,37.50
2023-05-09T04:41:41.001Z,37.50
2023-05-09T04:44:10.216Z,37.40
2023-05-09T04:46:39.341Z,37.40
2023-05-09T04:49:08.539Z,37.50
2023-05-09T04:51:40.700Z,37.50
2023-05-09T04:54:15.640Z,37.60
2023-05-09T04:56:44.694Z,37.60
2023-05-09T04:59:13.733Z,37.70
2023-05-09T05:01:42.713Z,37.70
2023-05-09T05:04:11.946Z,37.80
2023-05-09T05:06:40.981Z,37.90
2023-05-09T05:09:11.269Z,37.90
2023-05-09T05:11:47.376Z,38.00
2023-05-09T05:14:22.374Z,38.10
2023-05-09T05:16:51.463Z,38.10
2023-05-09T05:19:20.540Z,38.00
2023-05-09T05:21:49.499Z,37.90
2023-05-09T05:24:18.468Z,37.90
2023-05-09T05:26:47.489Z,37.90
2023-05-09T05:29:16.582Z,37.80
2023-05-09T05:31:45.684Z,37.70
2023-05-09T05:34:14.818Z,37.50
2023-05-09T05:36:43.887Z,37.30
2023-05-09T05:39:12.868Z,37.20
2023-05-09T05:41:42.092Z,37.20
2023-05-09T05:44:11.152Z,37.20
2023-05-09T05:46:40.181Z,37.30
2023-05-09T05:49:09.202Z,37.40
2023-05-09T05:51:38.167Z,37.40
2023-05-09T05:54:07.245Z,37.40
2023-05-09T05:56:36.299Z,37.40
2023-05-09T05:59:05.267Z,37.40
2023-05-09T06:01:34.439Z,37.30
2023-05-09T06:04:03.438Z,37.30
2023-05-09T06:06:32.543Z,37.20
2023-05-09T06:09:01.439Z,37.10
2023-05-09T06:11:30.443Z,37.10
2023-05-09T06:13:59.406Z,37.00
2023-05-09T06:16:28.683Z,36.90
2023-05-09T06:18:57.798Z,36.70
2023-05-09T06:21:27.508Z,36.60
2023-05-09T06:26:28.292Z,36.50
2023-05-09T06:28:57.629Z,36.30
2023-05-09T06:31:26.756Z,36.10
2023-05-09T06:33:55.722Z,36.00
2023-05-09T06:36:24.730Z,35.90
2023-05-09T06:38:53.802Z,35.90
2023-05-09T06:41:23.050Z,35.90
2023-05-09T06:43:51.977Z,35.90
2023-05-09T06:46:21.215Z,36.00
2023-05-09T06:48:50.361Z,36.00
2023-05-09T06:51:19.462Z,36.10
2023-05-09T06:53:48.494Z,36.10
2023-05-09T06:56:19.976Z,36.10
2023-05-09T06:58:49.413Z,36.20
2023-05-09T07:01:18.940Z,36.30
2023-05-09T07:03:48.736Z,36.40
2023-05-09T07:06:17.803Z,36.60
2023-05-09T07:08:47.129Z,36.70
2023-05-09T07:11:16.148Z,36.90
2023-05-09T07:13:45.142Z,37.10
2023-05-09T07:16:14.185Z,37.20
2023-05-09T07:18:43.224Z,37.30
2023-05-09T07:21:12.635Z,37.40
2023-05-09T07:23:42.043Z,37.40
2023-05-09T07:26:11.101Z,37.40
2023-05-09T07:28:40.398Z,37.50
2023-05-09T07:31:10.549Z,37.50
2023-05-09T07:33:39.856Z,37.50
2023-05-09T07:36:09.050Z,37.50
2023-05-09T07:38:38.486Z,37.50
2023-05-09T07:41:07.982Z,37.60
2023-05-09T07:43:37.314Z,37.70
2023-05-09T07:46:06.430Z,37.80
2023-05-09T07:48:35.500Z,37.80
2023-05-09T07:51:04.481Z,37.80
2023-05-09T07:53:35.834Z,37.80
2023-05-09T07:56:04.831Z,37.70
2023-05-09T07:58:35.492Z,37.60
2023-05-09T08:01:04.451Z,37.50
2023-05-09T08:03:33.629Z,37.50
2023-05-09T08:06:02.705Z,37.50
2023-05-09T08:08:31.741Z,37.50
2023-05-09T08:11:00.864Z,37.50
2023-05-09T08:13:29.900Z,37.40
2023-05-09T08:15:59.462Z,37.30
2023-05-09T08:18:28.568Z,37.30
2023-05-09T08:20:57.516Z,37.20
2023-05-09T08:23:27.278Z,37.20
2023-05-09T08:25:56.656Z,37.10
2023-05-09T08:28:25.647Z,37.00
2023-05-09T08:30:54.798Z,36.90
2023-05-09T08:33:23.824Z,36.90
2023-05-09T08:35:54.409Z,36.80
2023-05-09T08:38:23.725Z,36.70
2023-05-09T08:40:52.790Z,36.60
2023-05-09T08:43:23.575Z,36.50
2023-05-09T08:46:00.319Z,36.30
2023-05-09T08:48:31.406Z,36.10
2023-05-09T08:51:01.154Z,35.90
2023-05-09T08:53:30.371Z,35.60
2023-05-09T08:56:02.841Z,35.40
2023-05-09T08:58:33.186Z,35.20
2023-05-09T09:01:05.824Z,35.00
2023-05-09T09:03:35.044Z,34.70
2023-05-09T09:06:04.334Z,34.50
2023-05-09T09:08:35.176Z,34.30
2023-05-09T09:11:04.412Z,34.20
2023-05-09T09:13:35.248Z,34.00
2023-05-09T09:16:04.462Z,33.90
2023-05-09T09:18:35.381Z,33.90
2023-05-09T09:21:11.116Z,33.80
2023-05-09T09:23:44.191Z,33.80
2023-05-09T09:26:13.250Z,33.80
2023-05-09T09:28:43.240Z,33.70
2023-05-09T09:31:48.100Z,33.60
2023-05-09T09:34:24.145Z,33.50
2023-05-09T09:36:53.396Z,33.40
2023-05-09T09:39:23.273Z,33.40
2023-05-09T09:41:52.438Z,33.40
2023-05-09T09:44:23.204Z,33.30
2023-05-09T09:46:57.083Z,33.30
2023-05-09T09:49:28.025Z,33.20
2023-05-09T09:51:59.511Z,33.10
2023-05-09T09:54:29.642Z,33.00
2023-05-09T09:56:58.752Z,33.00
2023-05-09T09:59:28.633Z,33.00
2023-05-09T10:02:04.923Z,32.90
2023-05-09T10:04:37.987Z,33.00
2023-05-09T10:07:15.161Z,33.00
2023-05-09T10:09:45.058Z,32.90
2023-05-09T10:12:16.609Z,32.90
2023-05-09T10:14:46.385Z,33.00
2023-05-09T10:17:19.587Z,33.10
2023-05-09T10:19:51.952Z,33.10
2023-05-09T10:22:24.323Z,33.10
2023-05-09T10:24:58.458Z,33.20
2023-05-09T10:27:30.746Z,33.20
2023-05-09T10:30:06.120Z,33.30
2023-05-09T10:32:56.198Z,33.30
2023-05-09T10:35:30.683Z,33.20
2023-05-09T10:38:00.024Z,33.20
2023-05-09T10:40:30.570Z,33.20
2023-05-09T10:42:59.530Z,33.20
2023-05-09T10:45:29.535Z,33.20
2023-05-09T10:47:59.375Z,33.10
2023-05-09T10:50:28.881Z,33.10
2023-05-09T10:53:20.100Z,33.00
2023-05-09T10:55:49.137Z,33.00
2023-05-09T10:58:38.682Z,33.00
2023-05-09T11:01:08.133Z,32.90
2023-05-09T11:03:56.765Z,32.90
2023-05-09T11:06:46.761Z,32.90
2023-05-09T11:09:42.506Z,32.90
2023-05-09T11:12:16.759Z,32.80
2023-05-09T11:14:47.049Z,32.80
2023-05-09T11:17:25.916Z,32.90
2023-05-09T11:19:55.115Z,32.80
2023-05-09T11:22:43.506Z,32.80
2023-05-09T11:25:18.117Z,32.80
2023-05-09T11:27:53.531Z,32.70
2023-05-09T11:30:22.887Z,32.70
2023-05-09T11:33:00.135Z,32.70
2023-05-09T11:35:29.201Z,32.60
2023-05-09T11:38:08.348Z,32.60
2023-05-09T11:40:38.526Z,32.60
2023-05-09T11:43:10.497Z,32.60
2023-05-09T11:45:41.862Z,32.60
2023-05-09T11:48:11.950Z,32.50
2023-05-09T11:50:42.380Z,32.50
2023-05-09T11:53:13.673Z,32.50
2023-05-09T11:55:43.352Z,32.50
2023-05-09T11:58:12.491Z,32.50
2023-05-09T12:00:47.147Z,32.40
2023-05-09T12:03:16.490Z,32.40
2023-05-09T12:05:45.808Z,32.30
2023-05-09T12:08:16.638Z,32.30
2023-05-09T12:10:45.825Z,32.30
2023-05-09T12:13:14.835Z,32.30
2023-05-09T12:15:46.819Z,32.20
2023-05-09T12:18:18.325Z,32.10
2023-05-09T12:20:52.258Z,32.10
2023-05-09T12:23:21.704Z,32.00
2023-05-09T12:26:00.054Z,31.90
2023-05-09T12:28:29.886Z,31.90
2023-05-09T12:30:59.586Z,31.80
2023-05-09T12:33:28.959Z,31.80
2023-05-09T12:36:15.407Z,31.80
2023-05-09T12:38:55.456Z,31.80
2023-05-09T12:43:57.276Z,31.80
2023-05-09T12:46:26.808Z,31.70
2023-05-09T12:48:56.322Z,31.50
2023-05-09T12:51:25.643Z,31.30
2023-05-09T12:53:55.292Z,31.10
2023-05-09T12:56:27.044Z,30.80
2023-05-09T12:58:57.262Z,30.60
2023-05-09T13:01:30.149Z,30.50
2023-05-09T13:04:07.716Z,30.30
2023-05-09T13:06:37.482Z,30.10
2023-05-09T13:09:07.419Z,30.00
2023-05-09T13:11:38.929Z,29.90
2023-05-09T13:14:08.037Z,29.80
2023-05-09T13:16:37.298Z,29.70
2023-05-09T13:19:06.632Z,29.50
2023-05-09T13:21:37.237Z,29.10
2023-05-09T13:24:07.249Z,28.70
2023-05-09T13:26:36.390Z,28.30
2023-05-09T13:29:05.444Z,27.90
2023-05-09T13:31:34.515Z,27.50
2023-05-09T13:34:03.493Z,27.20
2023-05-09T13:36:33.737Z,26.90
2023-05-09T13:39:02.755Z,26.60
2023-05-09T13:41:33.322Z,26.30
2023-05-09T13:44:02.456Z,26.10
2023-05-09T13:46:31.560Z,25.90
2023-05-09T13:49:00.640Z,25.80
2023-05-09T13:51:30.279Z,25.70
2023-05-09T13:53:59.237Z,25.60
2023-05-09T13:56:28.228Z,25.50
2023-05-09T13:58:57.179Z,25.30
2023-05-09T14:01:26.336Z,25.20
2023-05-09T14:03:55.577Z,25.00
2023-05-09T14:06:24.745Z,24.90
2023-05-09T14:08:54.249Z,24.90
2023-05-09T14:11:23.211Z,24.90
2023-05-09T14:13:53.745Z,24.90
2023-05-09T14:16:23.296Z,24.80
2023-05-09T14:18:52.285Z,24.80
2023-05-09T14:21:21.247Z,24.80
2023-05-09T14:23:50.870Z,24.80
2023-05-09T14:26:20.422Z,24.90
2023-05-09T14:28:49.665Z,25.00
2023-05-09T14:31:18.792Z,25.10
2023-05-09T14:33:48.102Z,25.10
2023-05-09T14:36:17.103Z,25.10
2023-05-09T14:38:48.015Z,25.20
2023-05-09T14:41:17.616Z,25.20
2023-05-09T14:43:47.809Z,25.20
2023-05-09T14:46:17.199Z,25.20
2023-05-09T14:48:46.192Z,25.20
2023-05-09T14:51:15.508Z,25.20
2023-05-09T14:53:44.739Z,25.20
2023-05-09T14:56:14.386Z,25.20
2023-05-09T14:58:43.487Z,25.30
2023-05-09T15:01:12.538Z,25.30
2023-05-09T15:03:42.024Z,25.30
2023-05-09T15:06:11.808Z,25.30
2023-05-09T15:08:42.472Z,25.30
2023-05-09T15:11:11.464Z,25.30
2023-05-09T15:13:40.426Z,25.30
2023-05-09T15:16:09.993Z,25.30
2023-05-09T15:18:43.850Z,25.20
2023-05-09T15:21:15.499Z,25.20
2023-05-09T15:23:44.706Z,25.20
2023-05-09T15:26:13.892Z,25.20
2023-05-09T15:28:42.939Z,25.10
2023-05-09T15:31:11.938Z,25.10
2023-05-09T15:33:40.873Z,25.10
2023-05-09T15:36:10.999Z,25.10
2023-05-09T15:38:40.054Z,25.00
2023-05-09T15:41:09.895Z,25.00
2023-05-09T15:43:38.972Z,25.00
2023-05-09T15:46:08.564Z,25.00
2023-05-09T15:48:37.698Z,25.00
2023-05-09T15:51:06.920Z,25.00
2023-05-09T15:53:35.894Z,25.00
2023-05-09T15:56:05.619Z,25.00
2023-05-09T15:58:35.390Z,25.00
2023-05-09T16:01:09.073Z,25.00
2023-05-09T16:03:38.753Z,25.10
2023-05-09T16:06:08.464Z,25.10
2023-05-09T16:08:37.450Z,25.10
2023-05-09T16:11:06.733Z,25.10
2023-05-09T16:13:36.299Z,25.10
2023-05-09T16:16:05.840Z,25.10
2023-05-09T16:18:35.023Z,25.10
2023-05-09T16:21:04.045Z,25.10
2023-05-09T16:23:33.026Z,25.10
2023-05-09T16:26:02.115Z,25.10
2023-05-09T16:28:31.388Z,25.10
2023-05-09T16:31:01.921Z,25.10
2023-05-09T16:33:31.053Z,25.10
2023-05-09T16:36:00.349Z,25.20
2023-05-09T16:38:29.636Z,25.20
2023-05-09T16:40:58.609Z,25.20
2023-05-09T16:43:27.606Z,25.30
2023-05-09T16:45:56.648Z,25.20
2023-05-09T16:48:25.676Z,25.30
2023-05-09T16:50:54.872Z,25.30
2023-05-09T16:53:25.418Z,25.30
2023-05-09T16:55:56.186Z,25.30
2023-05-09T16:58:26.404Z,25.30
2023-05-09T17:00:56.450Z,25.30
2023-05-09T17:03:25.542Z,25.20
2023-05-09T17:05:54.596Z,25.20
2023-05-09T17:08:24.769Z,25.10
2023-05-09T17:10:53.816Z,25.10
2023-05-09T17:13:22.971Z,25.00
2023-05-09T17:15:53.771Z,24.90
2023-05-09T17:18:36.006Z,24.90
2023-05-09T17:21:07.850Z,24.80
2023-05-09T17:23:36.934Z,24.80
2023-05-09T17:26:06.262Z,24.80
2023-05-09T17:28:35.346Z,24.80
2023-05-09T17:31:04.607Z,24.80
2023-05-09T17:33:33.722Z,24.80
2023-05-09T17:36:02.743Z,24.80
2023-05-09T17:38:31.923Z,24.80
2023-05-09T17:41:01.204Z,24.80
2023-05-09T17:43:30.270Z,24.80
2023-05-09T17:45:59.875Z,24.80
2023-05-09T17:48:29.019Z,24.70
2023-05-09T17:50:58.013Z,24.70
2023-05-09T17:53:27.700Z,24.60
2023-05-09T17:55:56.838Z,24.60
2023-05-09T17:58:25.923Z,24.60
2023-05-09T18:00:56.620Z,24.60
2023-05-09T18:03:26.215Z,24.50
2023-05-09T18:05:55.565Z,24.50
2023-05-09T18:08:24.906Z,24.50
2023-05-09T18:10:57.486Z,24.50
2023-05-09T18:13:26.979Z,24.40
2023-05-09T18:16:00.828Z,24.40
2023-05-09T18:18:30.288Z,24.40
2023-05-09T18:21:02.335Z,24.40
2023-05-09T18:23:31.645Z,24.40
2023-05-09T18:26:00.728Z,24.40
2023-05-09T18:28:29.980Z,24.40
2023-05-09T18:31:02.793Z,24.40
2023-05-09T18:33:32.414Z,24.50
2023-05-09T18:36:01.688Z,24.50
2023-05-09T18:38:31.881Z,24.50
2023-05-09T18:41:00.930Z,24.50
2023-05-09T18:43:31.016Z,24.60
2023-05-09T18:46:00.012Z,24.60
2023-05-09T18:48:29.029Z,24.60
2023-05-09T18:50:58.208Z,24.60
2023-05-09T18:53:28.124Z,24.70
2023-05-09T18:56:00.068Z,24.70
2023-05-09T18:58:29.116Z,24.70
2023-05-09T19:00:58.112Z,24.70
2023-05-09T19:03:28.365Z,24.80
2023-05-09T19:05:57.949Z,24.80
2023-05-09T19:08:27.465Z,24.80
2023-05-09T19:10:56.518Z,24.80
2023-05-09T19:13:25.606Z,24.80
2023-05-09T19:15:54.958Z,24.80
2023-05-09T19:18:24.242Z,24.80
2023-05-09T19:20:53.194Z,24.80
2023-05-09T19:23:22.388Z,24.70
2023-05-09T19:25:54.338Z,24.80
2023-05-09T19:28:24.238Z,24.70
2023-05-09T19:30:53.653Z,24.80
2023-05-09T19:33:22.841Z,24.80
2023-05-09T19:35:51.944Z,24.80
2023-05-09T19:38:20.980Z,24.80
2023-05-09T19:40:50.085Z,24.80
2023-05-09T19:43:19.160Z,24.80
2023-05-09T19:45:48.216Z,24.80
2023-05-09T19:48:17.228Z,24.80
2023-05-09T19:50:47.269Z,24.90
2023-05-09T19:53:16.466Z,24.90
2023-05-09T19:55:48.064Z,24.90
2023-05-09T19:58:18.098Z,24.90
2023-05-09T20:00:47.402Z,24.90
2023-05-09T20:03:16.708Z,24.80
2023-05-09T20:05:45.950Z,24.80
2023-05-09T20:08:15.132Z,24.90
2023-05-09T20:10:44.645Z,24.90
2023-05-09T20:13:15.152Z,24.90
2023-05-09T20:15:44.336Z,24.90
2023-05-09T20:18:13.932Z,24.90
2023-05-09T20:20:43.584Z,25.00
2023-05-09T20:23:12.824Z,25.00
2023-05-09T20:25:42.023Z,25.00
2023-05-09T20:28:13.455Z,25.00
2023-05-09T20:30:42.569Z,25.00
2023-05-09T20:33:11.736Z,25.00
2023-05-09T20:35:41.261Z,25.00
2023-05-09T20:38:10.618Z,25.00
2023-05-09T20:40:40.558Z,25.00
2023-05-09T20:43:09.891Z,25.00
2023-05-09T20:45:39.093Z,25.00
2023-05-09T20:48:09.243Z,25.00
2023-05-09T20:50:38.354Z,25.00
2023-05-09T20:53:07.434Z,24.90
2023-05-09T20:55:36.964Z,24.90
2023-05-09T20:58:06.050Z,24.90
2023-05-09T21:00:35.678Z,24.90
2023-05-09T21:03:05.161Z,24.90
2023-05-09T21:05:34.506Z,24.90
2023-05-09T21:08:03.570Z,24.90
2023-05-09T21:10:32.693Z,24.90
2023-05-09T21:13:01.966Z,25.00
2023-05-09T21:15:31.110Z,25.00
2023-05-09T21:18:00.586Z,25.00
2023-05-09T21:20:29.761Z,25.10
2023-05-09T21:22:58.997Z,25.10
2023-05-09T21:25:28.071Z,25.10
2023-05-09T21:27:57.580Z,25.10
2023-05-09T21:30:27.033Z,25.00
2023-05-09T21:32:56.186Z,25.00
2023-05-09T21:35:25.376Z,25.00
2023-05-09T21:37:54.446Z,24.90
2023-05-09T21:40:23.629Z,24.90
2023-05-09T21:42:52.782Z,25.00
2023-05-09T21:45:21.995Z,25.00
2023-05-09T21:47:51.215Z,25.00
2023-05-09T21:50:20.510Z,25.00
2023-05-09T21:52:49.636Z,25.00
2023-05-09T21:55:18.768Z,25.00
2023-05-09T21:57:47.794Z,24.90
2023-05-09T22:00:18.040Z,24.90
2023-05-09T22:02:48.198Z,24.90
2023-05-09T22:05:17.232Z,24.90
2023-05-09T22:07:46.369Z,24.90
2023-05-09T22:10:15.660Z,24.90
2023-05-09T22:12:45.442Z,24.90
2023-05-09T22:15:14.448Z,24.90
2023-05-09T22:17:43.501Z,24.90
2023-05-09T22:20:13.216Z,24.90
2023-05-09T22:22:43.414Z,24.90
2023-05-09T22:25:12.549Z,24.90
2023-05-09T22:27:41.867Z,24.90
2023-05-09T22:30:13.711Z,24.90
2023-05-09T22:32:43.001Z,24.90
2023-05-09T22:35:12.515Z,24.90
2023-05-09T22:37:41.596Z,24.90
2023-05-09T22:40:11.428Z,24.90
2023-05-09T22:42:40.412Z,24.90
2023-05-09T22:45:10.011Z,24.90
2023-05-09T22:47:39.416Z,24.90
2023-05-09T22:50:09.482Z,24.90
2023-05-09T22:52:38.488Z,24.90
2023-05-09T22:55:08.036Z,24.90
2023-05-09T22:57:37.183Z,24.90
2023-05-09T23:00:07.248Z,24.90
2023-05-09T23:02:36.438Z,24.90
2023-05-09T23:05:05.718Z,25.00
2023-05-09T23:07:34.941Z,25.00
2023-05-09T23:10:04.784Z,25.00
2023-05-09T23:12:33.802Z,25.00
2023-05-09T23:15:02.770Z,25.00
2023-05-09T23:17:31.920Z,25.00
2023-05-09T23:20:01.913Z,25.00
2023-05-09T23:22:31.296Z,25.10
2023-05-09T23:25:01.984Z,25.10
2023-05-09T23:27:32.410Z,25.10
2023-05-09T23:30:01.431Z,25.10
2023-05-09T23:32:30.639Z,25.10
2023-05-09T23:34:59.608Z,25.10
2023-05-09T23:37:28.583Z,25.20
2023-05-09T23:39:57.524Z,25.20
2023-05-09T23:42:26.511Z,25.20
2023-05-09T23:44:55.587Z,25.30
2023-05-09T23:47:24.581Z,25.30
2023-05-09T23:49:53.607Z,25.30
2023-05-09T23:52:22.620Z,25.30
2023-05-09T23:54:51.745Z,25.40
2023-05-09T23:57:21.251Z,25.40
2023-05-09T23:59:50.191Z,25.40
